Hovedside
METAR-TAF:

METAR-TAF

Lufthavner :

Heidrunfeltet

Heidrun, Norge

breddegrad: 65-19-30N, lengdegrad: 007-19-36E, høyde over havet: 0 m

Gjeldene værobservasjon

Denne rapporten ble laget for 33 minutter siden, klokken 19:50 UTC
Vind 23 kt fra Vest-sørvest
Temperatur 6°C
Luftfuktighet 70%
Trykk 1007 hPa
Sikt 10 km eller mer
Spredte skyer i en høyde av 2600 ft

METAR: ENHE 141950Z 25023KT 9999 SCT026 06/01 Q1007 W///S4

Tid: 21:23 (20:23 UTC)

Varsel

Denne rapporten ble laget for 3 timer og 23 minutter siden, klokken 17:00 UTC
Varsel gyldig fra 14. klokken 18 UTC til 15. klokken 03 UTC
Vind 25 kt fra Sør-sørvest
Sikt 10 km eller mer
Brutte skyer i en høyde av 3000 ft
Midlertidig
fra 14. klokken 18 UTC til 15. klokken 03 UTC
Brutte skyer i en høyde av 1400 ft, Bygeskyer.
regnbyger
Blir
fra 14. klokken 18 UTC til 14. klokken 21 UTC
Vind 18 kt fra Vest

TAF: ENHE 141700Z 1418/1503 21025KT 9999 BKN030 TEMPO 1418/1503 SHRA BKN014CB BECMG 1418/1421 27018KT

Værobservasjoner og værvarsel for over 4000 flyplasser (METAR- og TAF-rapporter).

Tilgjengelige stasjoner er representert av de røde og gule prikkene på kartet.

Hold musepekeren over prikken for å se navnet på stasjonen.

Klikk så for å se værobservasjoner og -varsler.

For å forandre kartet kan du klikke på den grønne knappen med svart kryss for å zoome inn, på den grønne knappen med strek for å zoome ut, eller på de grønne pilene for å se tilstøtende kart.


METAR-TAF: